Ava J. Mccall — WDI5812 — position and weather

sailwx.info

Track history (hours):
 
Tides and Currents Weather Stations Pressure Air Temp Water Temp Dewpoint Dewpoint Depression Visibility Wind Speed Wind Dir Waves Ship Positions

Ava J. Mccall

Owner: SEACOR MARINE LLC, HOUMA, LA. More information available from US FCC via Universal Licensing System and Coast Guard Vessel Documentation Center.

Last reported at 2018-Feb-13 19:34 UTC. Time now 2018-Feb-18 08:46 UTC.
Position N 29°36' W 090°58'.

Length 60 m; draft 2 m.

Type: Port tender. MMSI: 368153000.

Date/timePositionNaut miles runAvg speedWind from/ knotsBaromVisibWave heightAir tempDewpointWater temp
2018-Feb-13 19:34N 29°36' W 090°58'210.0
2018-Feb-13 19:23N 29°34' W 090°57'410.6
2018-Feb-13 19:00N 29°32' W 090°53'4 8.4
2018-Feb-13 18:30N 29°32' W 090°48'3 6.8
2018-Feb-13 18:00N 29°34' W 090°44'2 4.1
2018-Feb-13 17:30N 29°33' W 090°42'5 9.6
2018-Feb-13 17:00N 29°28' W 090°43'5 9.5
2018-Feb-13 16:28N 29°23' W 090°44'5 7.0
2018-Feb-13 15:47N 29°18' W 090°43'  
Track history (hours):
 
Tides and Currents Weather Stations Pressure Air Temp Water Temp Dewpoint Dewpoint Depression Visibility Wind Speed Wind Dir Waves Ship Positions

Ava J. Mccall

Owner: SEACOR MARINE LLC, HOUMA, LA. More information available from US FCC via Universal Licensing System and Coast Guard Vessel Documentation Center.

Last reported at 2018-Feb-13 19:34 UTC. Time now 2018-Feb-18 08:46 UTC.
Position N 29°36' W 090°58'.

Length 60 m; draft 2 m.

Type: Port tender. MMSI: 368153000.

Date/timePositionNaut miles runAvg speedWind from/ knotsBaromVisibWave heightAir tempDewpointWater temp
2018-Feb-13 19:34N 29°36' W 090°58'210.0
2018-Feb-13 19:23N 29°34' W 090°57'410.6
2018-Feb-13 19:00N 29°32' W 090°53'4 8.4
2018-Feb-13 18:30N 29°32' W 090°48'3 6.8
2018-Feb-13 18:00N 29°34' W 090°44'2 4.1
2018-Feb-13 17:30N 29°33' W 090°42'5 9.6
2018-Feb-13 17:00N 29°28' W 090°43'5 9.5
2018-Feb-13 16:28N 29°23' W 090°44'5 7.0
2018-Feb-13 15:47N 29°18' W 090°43'  

Dump ship's entire track history